Pattersonville, Pennsylvania
Current Conditions -  °F | °C
As of 11:15 AM on Friday 21 Nov 2014 (Local Time) from KHZL Reporting Station
Broken Clouds Broken Clouds  
Wind Chill: 14°   Ceiling: 3900
Heat Index: 27°   Visibility: 10mi
Dew Point: 10°   Wind: 16mph
Humidity: 51%   Direction: 300°WNW
Pressure: 30.29"   Gusts: 21mph
Location:  40.8516°N, 76.2497°W
Report Text: KHZL 211615Z AUTO 30014G18KT 10SM SCT033 BKN039 M03/M12 A3029 RMK AO2
Loading
Personal Weather Stations






























Interactive Weather Map New forecast layout! Learn more

10-Day Weather Forecast

Advertisements
Track Severe Weather on mobile